Time;durP1;ratioP1;P1;durP2;ratioP2;P2;SDS_P1;SDS_P2;PMS_P1;PMS_P2;Temp;Humidity;BMP_temperature;BMP_pressure;BME280_temperature;BME280_humidity;BME280_pressure;Samples;Min_cycle;Max_cycle;Signal;HPM_P1;HPM_P2
2024/01/11 00:00:24;;;;;;;25.67;13.00;;;-4.30;99.90;;;;;;5052023;28;20627;-70
2024/01/11 00:02:49;;;;;;;21.27;12.30;;;-4.20;99.90;;;;;;5051885;28;20577;-71
2024/01/11 00:05:15;;;;;;;22.37;11.13;;;-4.20;99.90;;;;;;5051557;28;20553;-70
2024/01/11 00:07:40;;;;;;;22.40;12.23;;;-4.20;99.90;;;;;;5051854;28;20185;-70
2024/01/11 00:10:06;;;;;;;17.40;11.00;;;-4.20;99.90;;;;;;5051922;28;20253;-70
2024/01/11 00:12:32;;;;;;;23.07;13.63;;;-4.20;99.90;;;;;;5051881;28;20167;-71
2024/01/11 00:14:58;;;;;;;20.30;12.30;;;-4.20;99.90;;;;;;5051558;28;20429;-70
2024/01/11 00:17:25;;;;;;;23.17;12.73;;;-4.20;99.90;;;;;;5051182;28;20167;-70
2024/01/11 00:19:50;;;;;;;17.30;10.77;;;-4.20;99.90;;;;;;5051790;28;20401;-70
2024/01/11 00:22:16;;;;;;;22.13;13.10;;;-4.10;99.90;;;;;;5051749;28;20404;-71
2024/01/11 00:24:42;;;;;;;25.93;11.27;;;-4.10;99.90;;;;;;5051573;28;20190;-71
2024/01/11 00:27:07;;;;;;;19.43;12.40;;;-4.10;99.90;;;;;;5051771;28;20404;-70
2024/01/11 00:29:33;;;;;;;33.17;13.23;;;-4.10;99.90;;;;;;5051772;28;20847;-71
2024/01/11 00:31:59;;;;;;;24.57;12.40;;;-4.10;99.90;;;;;;5051811;28;20163;-70
2024/01/11 00:34:24;;;;;;;29.57;15.37;;;-4.10;99.90;;;;;;5051424;28;20409;-70
2024/01/11 00:36:50;;;;;;;31.47;15.13;;;-4.10;99.90;;;;;;5051575;28;20217;-71
2024/01/11 00:39:15;;;;;;;28.53;14.83;;;-4.10;99.90;;;;;;5051676;28;20167;-70
2024/01/11 00:41:41;;;;;;;22.47;13.53;;;-4.10;99.90;;;;;;5051726;28;20171;-71
2024/01/11 00:44:07;;;;;;;22.10;12.60;;;-4.10;99.90;;;;;;5051369;28;20731;-72
2024/01/11 00:46:33;;;;;;;26.10;11.83;;;-4.10;99.90;;;;;;5051502;28;20186;-71
2024/01/11 00:48:58;;;;;;;15.73;11.33;;;-4.10;99.90;;;;;;5050922;28;20408;-71
2024/01/11 00:51:24;;;;;;;26.27;13.17;;;-4.10;99.90;;;;;;5050411;28;20425;-71
2024/01/11 00:53:49;;;;;;;27.57;13.27;;;-4.10;99.90;;;;;;5050932;28;20186;-71
2024/01/11 00:56:19;;;;;;;28.00;13.80;;;-4.20;99.90;;;;;;5051465;28;20179;-70
2024/01/11 00:58:45;;;;;;;21.73;10.07;;;-4.20;99.90;;;;;;5051391;28;20163;-71
2024/01/11 01:01:11;;;;;;;22.50;13.23;;;-4.20;99.90;;;;;;5051361;28;20762;-71
2024/01/11 01:03:37;;;;;;;23.40;13.53;;;-4.10;99.90;;;;;;5050999;28;20498;-71
2024/01/11 01:06:02;;;;;;;25.53;15.17;;;-4.20;99.90;;;;;;5050769;28;21017;-70
2024/01/11 01:08:29;;;;;;;26.00;15.90;;;-4.20;99.90;;;;;;5051331;28;20416;-71
2024/01/11 01:10:54;;;;;;;31.63;17.57;;;-4.20;99.90;;;;;;5051354;28;20401;-71
2024/01/11 01:13:20;;;;;;;25.20;13.27;;;-4.20;99.90;;;;;;5051049;28;20428;-70
2024/01/11 01:15:46;;;;;;;21.13;12.27;;;-4.30;99.90;;;;;;5050053;28;20275;-70
2024/01/11 01:18:11;;;;;;;26.03;13.40;;;-4.30;99.90;;;;;;5051260;28;20313;-71
2024/01/11 01:20:37;;;;;;;17.27;11.20;;;-4.30;99.90;;;;;;5051228;28;20181;-70
2024/01/11 01:23:02;;;;;;;28.83;12.93;;;-4.30;99.90;;;;;;5051128;28;20163;-72
2024/01/11 01:25:28;;;;;;;23.27;10.90;;;-4.30;99.90;;;;;;5050893;28;20191;-71
2024/01/11 01:27:55;;;;;;;17.60;11.23;;;-4.30;99.90;;;;;;5051477;28;20656;-72
2024/01/11 01:30:20;;;;;;;24.33;12.40;;;-4.30;99.90;;;;;;5054795;28;20163;-71
2024/01/11 01:32:46;;;;;;;25.73;10.60;;;-4.40;99.90;;;;;;5054775;28;20404;-72
2024/01/11 01:35:11;;;;;;;19.57;10.53;;;-4.40;99.90;;;;;;5054238;28;20689;-70
2024/01/11 01:37:37;;;;;;;21.00;10.43;;;-4.40;99.90;;;;;;5054677;28;20167;-71
2024/01/11 01:40:03;;;;;;;17.80;9.27;;;-4.40;99.90;;;;;;5054730;28;20167;-70
2024/01/11 01:42:28;;;;;;;19.83;11.40;;;-4.40;99.90;;;;;;5054599;28;20225;-71
2024/01/11 01:44:54;;;;;;;18.53;10.50;;;-4.40;99.90;;;;;;5054226;28;20502;-71
2024/01/11 01:47:20;;;;;;;21.73;12.20;;;-4.40;99.90;;;;;;5054474;28;20167;-71
2024/01/11 01:49:48;;;;;;;22.93;10.53;;;-4.40;99.90;;;;;;5054390;28;20163;-71
2024/01/11 01:52:15;;;;;;;26.60;11.93;;;-4.50;99.90;;;;;;5054287;28;20463;-70
2024/01/11 01:54:40;;;;;;;19.33;9.30;;;-4.50;99.90;;;;;;5054186;28;20421;-72
2024/01/11 01:57:09;;;;;;;17.80;10.70;;;-4.50;99.90;;;;;;5054316;28;20759;-71
2024/01/11 01:59:35;;;;;;;15.30;10.77;;;-4.50;99.90;;;;;;5052872;28;20163;-71
2024/01/11 02:02:01;;;;;;;21.03;9.93;;;-4.50;99.90;;;;;;5054200;28;20409;-71
2024/01/11 02:04:27;;;;;;;23.83;10.10;;;-4.50;99.90;;;;;;5053885;28;20187;-71
2024/01/11 02:06:54;;;;;;;18.93;10.37;;;-4.40;99.90;;;;;;5054179;28;20405;-71
2024/01/11 02:09:19;;;;;;;18.30;10.40;;;-4.50;99.90;;;;;;5054061;28;20411;-72
2024/01/11 02:11:45;;;;;;;27.30;12.50;;;-4.50;99.90;;;;;;5054142;28;20386;-72
2024/01/11 02:14:11;;;;;;;24.23;9.80;;;-4.50;99.90;;;;;;5053703;28;20222;-71
2024/01/11 02:16:37;;;;;;;13.63;9.50;;;-4.50;99.90;;;;;;5053927;28;20636;-71
2024/01/11 02:19:05;;;;;;;21.13;11.00;;;-4.50;99.90;;;;;;5054062;28;20405;-71
2024/01/11 02:21:32;;;;;;;23.07;12.00;;;-4.50;99.90;;;;;;5053900;28;20455;-71
2024/01/11 02:24:04;;;;;;;19.00;11.70;;;-4.50;99.90;;;;;;5053634;28;20424;-72
2024/01/11 02:26:29;;;;;;;29.27;13.30;;;-4.60;99.90;;;;;;5053665;28;20498;-71
2024/01/11 02:28:55;;;;;;;19.77;10.23;;;-4.60;99.90;;;;;;5053525;28;20438;-71
2024/01/11 02:31:20;;;;;;;27.17;8.87;;;-4.60;99.90;;;;;;5053922;28;20170;-71
2024/01/11 02:33:47;;;;;;;17.30;10.53;;;-4.60;99.90;;;;;;5053287;28;20182;-71
2024/01/11 02:36:13;;;;;;;16.57;9.57;;;-4.70;99.90;;;;;;5053518;28;20178;-71
2024/01/11 02:38:41;;;;;;;21.47;9.73;;;-4.70;99.90;;;;;;5053121;28;20394;-72
2024/01/11 02:41:07;;;;;;;18.00;11.87;;;-4.70;99.90;;;;;;5053325;28;20414;-71
2024/01/11 02:43:35;;;;;;;17.70;10.30;;;-4.70;99.90;;;;;;5052953;28;20436;-71
2024/01/11 02:46:01;;;;;;;20.80;8.90;;;-4.70;99.90;;;;;;5053197;28;20449;-71
2024/01/11 02:48:30;;;;;;;19.40;10.50;;;-4.70;99.90;;;;;;5053256;28;20896;-72
2024/01/11 02:50:57;;;;;;;20.30;9.23;;;-4.70;99.90;;;;;;5053220;28;20425;-71
2024/01/11 02:53:23;;;;;;;16.57;9.77;;;-4.80;99.90;;;;;;5052747;28;20458;-71
2024/01/11 02:55:52;;;;;;;15.53;9.73;;;-4.70;99.90;;;;;;5053220;28;20466;-71
2024/01/11 02:58:17;;;;;;;19.43;10.80;;;-4.80;99.90;;;;;;5053184;28;20414;-71
2024/01/11 03:00:43;;;;;;;14.90;9.37;;;-4.80;99.90;;;;;;5051867;28;21009;-71
2024/01/11 03:03:09;;;;;;;24.80;9.97;;;-4.80;99.90;;;;;;5052974;28;20211;-71
2024/01/11 03:05:34;;;;;;;21.87;9.63;;;-4.80;99.90;;;;;;5051609;28;20670;-71
2024/01/11 03:08:00;;;;;;;20.47;9.03;;;-4.80;99.90;;;;;;5053012;28;20631;-71
2024/01/11 03:10:25;;;;;;;27.53;9.93;;;-4.80;99.90;;;;;;5052863;28;20170;-72
2024/01/11 03:12:51;;;;;;;17.97;8.87;;;-4.90;99.90;;;;;;5052709;28;20163;-71
2024/01/11 03:15:16;;;;;;;23.13;11.93;;;-4.80;99.90;;;;;;5052569;28;20175;-71
2024/01/11 03:17:42;;;;;;;16.77;9.40;;;-4.90;99.90;;;;;;5052797;28;20527;-72
2024/01/11 03:20:08;;;;;;;24.93;10.73;;;-4.90;99.90;;;;;;5051482;28;20171;-72
2024/01/11 03:22:33;;;;;;;14.77;10.20;;;-4.90;99.90;;;;;;5052705;28;20657;-71
2024/01/11 03:24:59;;;;;;;17.60;8.77;;;-4.90;99.90;;;;;;5052266;28;20480;-71
2024/01/11 03:27:25;;;;;;;22.90;11.23;;;-4.90;99.90;;;;;;5052516;28;20638;-71
2024/01/11 03:29:50;;;;;;;43.20;16.53;;;-4.90;99.90;;;;;;5052607;28;20293;-71
2024/01/11 03:32:16;;;;;;;18.13;9.57;;;-4.90;99.90;;;;;;5052476;28;20167;-71
2024/01/11 03:34:41;;;;;;;27.17;12.30;;;-4.90;99.90;;;;;;5051867;28;20193;-72
2024/01/11 03:37:07;;;;;;;18.30;9.57;;;-4.90;99.90;;;;;;5052239;28;20260;-71
2024/01/11 03:39:34;;;;;;;16.47;9.57;;;-5.00;99.90;;;;;;5052367;28;20224;-71
2024/01/11 03:42:00;;;;;;;15.27;9.40;;;-5.00;99.90;;;;;;5052304;28;20589;-71
2024/01/11 03:44:25;;;;;;;26.57;10.60;;;-5.00;99.90;;;;;;5050690;28;20425;-71
2024/01/11 03:46:51;;;;;;;21.10;10.20;;;-5.00;99.90;;;;;;5052177;28;20244;-71
2024/01/11 03:49:17;;;;;;;17.23;11.57;;;-5.00;99.90;;;;;;5052196;28;20253;-71
2024/01/11 03:51:42;;;;;;;28.90;13.10;;;-5.00;99.90;;;;;;5050249;28;20509;-71
2024/01/11 03:54:08;;;;;;;18.53;10.43;;;-5.00;99.90;;;;;;5051990;28;20191;-71
2024/01/11 03:56:36;;;;;;;16.97;9.23;;;-5.00;99.90;;;;;;5052034;28;20177;-71
2024/01/11 03:59:02;;;;;;;16.00;9.50;;;-5.00;99.90;;;;;;5052095;28;20690;-71
2024/01/11 04:01:28;;;;;;;76.10;29.07;;;-5.00;99.90;;;;;;5051998;28;20496;-71
2024/01/11 04:03:53;;;;;;;25.83;12.70;;;-5.00;99.90;;;;;;5051725;28;20286;-71
2024/01/11 04:06:23;;;;;;;21.80;11.17;;;-5.10;99.90;;;;;;5051882;28;20547;-71
2024/01/11 04:08:49;;;;;;;21.33;10.40;;;-5.10;99.90;;;;;;5051904;28;20163;-71
2024/01/11 04:11:15;;;;;;;18.33;10.60;;;-5.10;99.90;;;;;;5051742;28;20405;-71
2024/01/11 04:13:40;;;;;;;23.80;11.30;;;-5.10;99.90;;;;;;5050263;28;20925;-70
2024/01/11 04:16:06;;;;;;;16.53;9.07;;;-5.10;99.90;;;;;;5051713;28;20167;-70
2024/01/11 04:18:32;;;;;;;19.30;10.80;;;-5.10;99.90;;;;;;5051754;28;20174;-70
2024/01/11 04:20:58;;;;;;;15.30;7.40;;;-5.20;99.90;;;;;;5051803;28;20185;-71
2024/01/11 04:23:24;;;;;;;17.37;8.07;;;-5.20;99.90;;;;;;5051446;28;20430;-71
2024/01/11 04:25:51;;;;;;;23.03;10.00;;;-5.20;99.90;;;;;;5051546;28;20453;-71
2024/01/11 04:28:16;;;;;;;17.77;10.53;;;-5.20;99.90;;;;;;5051693;28;20163;-71
2024/01/11 04:30:42;;;;;;;19.13;10.03;;;-5.20;99.90;;;;;;5051338;28;20416;-71
2024/01/11 04:33:08;;;;;;;18.00;11.00;;;-5.20;99.90;;;;;;5051553;28;20163;-71
2024/01/11 04:35:33;;;;;;;17.73;9.10;;;-5.30;99.90;;;;;;5051335;28;20218;-71
2024/01/11 04:37:59;;;;;;;18.97;9.10;;;-5.30;99.90;;;;;;5051629;28;20205;-71
2024/01/11 04:40:24;;;;;;;20.47;8.50;;;-5.30;99.90;;;;;;5050288;28;20244;-71
2024/01/11 04:42:50;;;;;;;17.30;9.77;;;-5.30;99.90;;;;;;5051490;28;20179;-70
2024/01/11 04:45:15;;;;;;;18.70;8.40;;;-5.30;99.90;;;;;;5051307;28;20210;-70
2024/01/11 04:47:41;;;;;;;14.17;10.07;;;-5.30;99.90;;;;;;5051554;28;20634;-71
2024/01/11 04:50:07;;;;;;;16.97;10.63;;;-5.30;99.90;;;;;;5051524;28;20213;-70
2024/01/11 04:52:32;;;;;;;14.73;8.77;;;-5.30;99.90;;;;;;5051183;28;20182;-71
2024/01/11 04:54:58;;;;;;;17.63;10.80;;;-5.30;99.90;;;;;;5050805;28;21001;-71
2024/01/11 04:57:24;;;;;;;20.87;10.20;;;-5.30;99.90;;;;;;5050227;28;20175;-72
2024/01/11 04:59:49;;;;;;;22.43;11.30;;;-5.30;99.90;;;;;;5051434;28;20209;-71
2024/01/11 05:02:15;;;;;;;31.77;14.17;;;-5.30;99.90;;;;;;5051962;28;20372;-71
2024/01/11 05:04:40;;;;;;;34.13;11.87;;;-5.30;99.90;;;;;;5054911;28;20191;-71
2024/01/11 05:07:06;;;;;;;22.47;12.50;;;-5.30;99.90;;;;;;5055162;28;20191;-71
2024/01/11 05:09:31;;;;;;;21.77;11.60;;;-5.30;99.90;;;;;;5055048;28;20537;-72
2024/01/11 05:11:57;;;;;;;29.07;12.67;;;-5.30;99.90;;;;;;5055150;28;20657;-71
2024/01/11 05:14:22;;;;;;;24.30;12.23;;;-5.30;99.90;;;;;;5054919;28;20187;-71
2024/01/11 05:16:48;;;;;;;29.63;14.40;;;-5.30;99.90;;;;;;5054977;28;20225;-72
2024/01/11 05:19:13;;;;;;;21.77;11.63;;;-5.30;99.90;;;;;;5055245;28;20542;-71
2024/01/11 05:21:39;;;;;;;23.73;10.87;;;-5.30;99.90;;;;;;5054485;28;20216;-71
2024/01/11 05:24:05;;;;;;;16.30;11.47;;;-5.30;99.90;;;;;;5054443;28;20191;-71
2024/01/11 05:26:31;;;;;;;46.47;14.50;;;-5.20;99.90;;;;;;5053520;28;20706;-70
2024/01/11 05:28:57;;;;;;;24.40;14.27;;;-5.30;99.90;;;;;;5054836;28;20234;-71
2024/01/11 05:31:22;;;;;;;20.90;12.37;;;-5.20;99.90;;;;;;5054854;28;20516;-71
2024/01/11 05:33:48;;;;;;;21.23;12.30;;;-5.20;99.90;;;;;;5054444;28;20181;-71
2024/01/11 05:36:13;;;;;;;16.73;11.67;;;-5.20;99.90;;;;;;5054636;28;20171;-71
2024/01/11 05:38:40;;;;;;;28.37;12.47;;;-5.20;99.90;;;;;;5054608;28;20213;-72
2024/01/11 05:41:05;;;;;;;29.07;11.73;;;-5.20;99.90;;;;;;5054698;28;20191;-71
2024/01/11 05:43:31;;;;;;;27.77;12.23;;;-5.20;99.90;;;;;;5053419;28;20972;-72
2024/01/11 05:45:56;;;;;;;23.70;12.07;;;-5.20;99.90;;;;;;5053978;28;20294;-70
2024/01/11 05:48:22;;;;;;;38.13;14.43;;;-5.10;99.90;;;;;;5054598;28;20171;-71
2024/01/11 05:50:47;;;;;;;21.97;13.80;;;-5.10;99.90;;;;;;5054568;28;20174;-70
2024/01/11 05:53:13;;;;;;;28.00;12.33;;;-5.10;99.90;;;;;;5053018;28;20207;-70
2024/01/11 05:55:39;;;;;;;34.90;15.00;;;-5.10;99.90;;;;;;5054167;28;20167;-71
2024/01/11 05:58:05;;;;;;;20.70;13.10;;;-5.20;99.90;;;;;;5054378;28;20661;-71
2024/01/11 06:00:30;;;;;;;38.30;13.30;;;-5.10;99.90;;;;;;5053035;28;20410;-70
2024/01/11 06:02:56;;;;;;;16.53;10.63;;;-5.20;99.90;;;;;;5054223;28;20167;-71
2024/01/11 06:05:22;;;;;;;28.10;13.77;;;-5.20;99.90;;;;;;5053851;28;20373;-70
2024/01/11 06:07:47;;;;;;;21.63;13.23;;;-5.20;99.90;;;;;;5053958;28;20170;-71
2024/01/11 06:10:14;;;;;;;23.07;12.97;;;-5.20;99.90;;;;;;5054085;28;20173;-71
2024/01/11 06:12:40;;;;;;;14.00;11.00;;;-5.20;99.90;;;;;;5052819;28;20206;-72
2024/01/11 06:15:06;;;;;;;29.03;13.90;;;-5.20;99.90;;;;;;5052417;28;20471;-70
2024/01/11 06:17:32;;;;;;;26.23;11.43;;;-5.20;99.90;;;;;;5053961;28;20775;-70
2024/01/11 06:19:57;;;;;;;26.90;12.70;;;-5.20;99.90;;;;;;5052757;28;20908;-70
2024/01/11 06:22:23;;;;;;;23.70;12.20;;;-5.20;99.90;;;;;;5053812;28;20236;-71
2024/01/11 06:24:48;;;;;;;23.30;14.50;;;-5.20;99.90;;;;;;5053471;28;20187;-71
2024/01/11 06:27:14;;;;;;;21.93;11.77;;;-5.20;99.90;;;;;;5053839;28;20163;-71
2024/01/11 06:29:39;;;;;;;27.30;13.20;;;-5.20;99.90;;;;;;5053656;28;20166;-71
2024/01/11 06:32:05;;;;;;;23.13;12.07;;;-5.20;99.90;;;;;;5053709;28;20630;-71
2024/01/11 06:34:31;;;;;;;26.90;14.43;;;-5.20;99.90;;;;;;5053378;28;20179;-71
2024/01/11 06:36:56;;;;;;;30.97;13.23;;;-5.20;99.90;;;;;;5053544;28;20772;-71
2024/01/11 06:39:22;;;;;;;28.77;13.23;;;-5.20;99.90;;;;;;5053632;28;20202;-71
2024/01/11 06:41:47;;;;;;;37.27;14.23;;;-5.30;99.90;;;;;;5053552;28;20229;-71
2024/01/11 06:44:13;;;;;;;27.77;12.37;;;-5.30;99.90;;;;;;5053105;28;20193;-71
2024/01/11 06:46:41;;;;;;;31.80;13.57;;;-5.30;99.90;;;;;;5053348;28;20190;-70
2024/01/11 06:49:07;;;;;;;19.30;12.30;;;-5.30;99.90;;;;;;5053390;28;20261;-71
2024/01/11 06:51:33;;;;;;;30.17;14.27;;;-5.40;99.90;;;;;;5053181;28;20456;-72
2024/01/11 06:54:00;;;;;;;23.17;13.20;;;-5.40;99.90;;;;;;5053021;28;20920;-71
2024/01/11 06:56:27;;;;;;;26.20;13.80;;;-5.40;99.90;;;;;;5053210;28;20163;-71
2024/01/11 06:58:52;;;;;;;26.50;13.77;;;-5.40;99.90;;;;;;5053063;28;20415;-71
2024/01/11 07:01:18;;;;;;;27.80;13.57;;;-5.40;99.90;;;;;;5053236;28;20488;-70
2024/01/11 07:03:44;;;;;;;26.83;14.10;;;-5.40;99.90;;;;;;5052821;28;20187;-70
2024/01/11 07:06:10;;;;;;;28.73;14.87;;;-5.40;99.90;;;;;;5052908;28;20455;-70
2024/01/11 07:08:35;;;;;;;18.33;13.03;;;-5.40;99.90;;;;;;5052946;28;20626;-70
2024/01/11 07:11:02;;;;;;;27.13;14.60;;;-5.40;99.90;;;;;;5053042;28;20697;-71
2024/01/11 07:13:28;;;;;;;26.13;14.47;;;-5.40;99.90;;;;;;5052524;28;20576;-70
2024/01/11 07:15:55;;;;;;;24.30;14.57;;;-5.40;99.90;;;;;;5052801;28;20409;-70
2024/01/11 07:18:21;;;;;;;33.97;13.47;;;-5.40;99.90;;;;;;5052849;28;20402;-71
2024/01/11 07:20:47;;;;;;;38.73;16.23;;;-5.40;99.90;;;;;;5052681;28;20923;-71
2024/01/11 07:23:13;;;;;;;28.43;16.77;;;-5.40;99.90;;;;;;5052508;28;20429;-71
2024/01/11 07:25:39;;;;;;;31.60;14.43;;;-5.40;99.90;;;;;;5052153;28;20558;-70
2024/01/11 07:28:05;;;;;;;25.20;13.67;;;-5.40;99.90;;;;;;5052636;28;20491;-70
2024/01/11 07:30:30;;;;;;;29.40;14.80;;;-5.40;99.90;;;;;;5052619;28;20476;-72
2024/01/11 07:32:56;;;;;;;29.10;14.07;;;-5.40;99.90;;;;;;5052444;28;20163;-71
2024/01/11 07:35:21;;;;;;;23.23;13.37;;;-5.40;99.90;;;;;;5052260;28;20174;-71
2024/01/11 07:37:47;;;;;;;24.50;12.83;;;-5.50;99.90;;;;;;5052484;28;20507;-71
2024/01/11 07:40:13;;;;;;;28.77;16.37;;;-5.40;99.90;;;;;;5052592;28;20193;-69
2024/01/11 07:42:39;;;;;;;18.87;13.20;;;-5.40;99.90;;;;;;5052453;28;20163;-70
2024/01/11 07:45:10;;;;;;;25.23;15.97;;;-5.40;99.90;;;;;;5051967;28;20460;-70
2024/01/11 07:47:37;;;;;;;22.10;12.83;;;-5.30;99.90;;;;;;5051080;28;20413;-71
2024/01/11 07:50:12;;;;;;;26.43;13.67;;;-5.30;99.90;;;;;;5052205;28;20481;-70
2024/01/11 07:52:38;;;;;;;30.30;15.57;;;-5.30;99.90;;;;;;5052169;28;20417;-71
2024/01/11 07:55:08;;;;;;;30.37;14.60;;;-5.20;99.90;;;;;;5051891;28;20912;-71
2024/01/11 07:57:34;;;;;;;21.80;15.60;;;-5.20;99.90;;;;;;5051989;28;20402;-70
2024/01/11 08:00:00;;;;;;;25.37;14.23;;;-5.10;99.90;;;;;;5051496;28;20784;-70
2024/01/11 08:02:26;;;;;;;29.80;17.40;;;-5.10;99.90;;;;;;5052043;28;20875;-70
2024/01/11 08:04:51;;;;;;;37.03;15.07;;;-5.00;99.90;;;;;;5051604;28;20433;-70
2024/01/11 08:07:17;;;;;;;36.53;16.67;;;-5.00;99.90;;;;;;5052032;28;20441;-70
2024/01/11 08:09:45;;;;;;;38.30;20.10;;;-4.90;99.90;;;;;;5050861;28;20166;-70
2024/01/11 08:12:11;;;;;;;32.20;15.00;;;-4.80;99.90;;;;;;5051768;28;20161;-69
2024/01/11 08:14:37;;;;;;;35.87;16.10;;;-4.70;99.90;;;;;;5051696;28;20425;-70
2024/01/11 08:17:04;;;;;;;39.03;18.10;;;-4.60;99.90;;;;;;5051738;28;20480;-69
2024/01/11 08:19:30;;;;;;;29.43;12.93;;;-4.40;99.90;;;;;;5051608;28;20217;-70
2024/01/11 08:21:56;;;;;;;32.33;15.73;;;-4.10;99.90;;;;;;5051800;28;20409;-69
2024/01/11 08:24:22;;;;;;;42.70;20.00;;;-2.90;99.90;;;;;;5051554;28;20890;-71
2024/01/11 08:26:48;;;;;;;41.90;22.03;;;-1.50;99.90;;;;;;5051638;28;20895;-70
2024/01/11 08:29:14;;;;;;;40.17;21.47;;;-0.10;99.90;;;;;;5051717;28;20480;-70
2024/01/11 08:31:40;;;;;;;43.27;22.07;;;1.20;99.90;;;;;;5051720;28;20163;-70
2024/01/11 08:34:05;;;;;;;40.77;22.73;;;2.60;99.90;;;;;;5051478;28;20262;-70
2024/01/11 08:36:34;;;;;;;44.67;23.57;;;3.90;99.90;;;;;;5051682;28;20484;-71
2024/01/11 08:38:59;;;;;;;34.83;19.20;;;5.20;99.90;;;;;;5055445;28;20211;-71
2024/01/11 08:41:25;;;;;;;37.00;20.07;;;6.60;99.90;;;;;;5055760;28;20412;-70
2024/01/11 08:43:51;;;;;;;32.13;16.23;;;7.70;99.90;;;;;;5055972;28;20195;-72
2024/01/11 08:46:26;;;;;;;29.83;17.80;;;8.80;99.90;;;;;;5055627;28;20595;-71
2024/01/11 08:48:53;;;;;;;29.10;16.97;;;9.50;99.90;;;;;;5055716;28;20401;-71
2024/01/11 08:51:19;;;;;;;30.53;19.20;;;10.10;99.90;;;;;;5055597;28;20408;-71
2024/01/11 08:53:44;;;;;;;26.00;16.07;;;10.90;96.90;;;;;;5055431;28;20405;-72
2024/01/11 08:56:10;;;;;;;27.50;15.00;;;11.80;92.40;;;;;;5055475;28;20246;-71
2024/01/11 08:58:36;;;;;;;28.87;16.37;;;12.80;71.80;;;;;;5055494;28;20191;-71
2024/01/11 09:01:02;;;;;;;22.80;14.90;;;13.40;60.90;;;;;;5055503;28;20175;-72
2024/01/11 09:03:28;;;;;;;20.03;15.03;;;13.90;54.50;;;;;;5055251;28;20559;-71
2024/01/11 09:05:56;;;;;;;25.17;16.57;;;14.30;49.90;;;;;;5055252;28;20445;-69
2024/01/11 09:08:22;;;;;;;25.43;14.60;;;14.70;47.10;;;;;;5055322;28;20448;-69
2024/01/11 09:10:48;;;;;;;29.07;16.73;;;15.10;46.10;;;;;;5055316;28;20448;-69
2024/01/11 09:13:15;;;;;;;23.43;16.10;;;15.00;43.70;;;;;;5055173;28;20202;-67
2024/01/11 09:15:41;;;;;;;22.37;14.30;;;15.00;43.00;;;;;;5055010;28;20167;-69
2024/01/11 09:18:07;;;;;;;28.87;16.70;;;15.00;42.30;;;;;;5055131;28;20404;-69
2024/01/11 09:20:33;;;;;;;24.67;17.70;;;15.10;42.30;;;;;;5055184;28;20412;-69
2024/01/11 09:22:59;;;;;;;24.83;15.93;;;15.20;41.30;;;;;;5054996;28;20662;-69
2024/01/11 09:25:24;;;;;;;28.10;16.43;;;15.20;39.80;;;;;;5054680;28;20514;-69
2024/01/11 09:27:50;;;;;;;28.33;17.00;;;14.80;38.50;;;;;;5055024;28;20163;-69
2024/01/11 09:30:15;;;;;;;27.40;16.73;;;14.40;38.70;;;;;;5055013;28;20174;-70
2024/01/11 09:32:41;;;;;;;22.53;15.73;;;14.30;39.10;;;;;;5055164;28;20167;-70
2024/01/11 09:35:07;;;;;;;30.60;18.23;;;14.30;39.30;;;;;;5054517;28;20191;-70
2024/01/11 09:37:32;;;;;;;26.40;17.00;;;14.10;38.70;;;;;;5053488;28;20269;-68
2024/01/11 09:40:00;;;;;;;29.50;18.30;;;14.10;39.20;;;;;;5054682;28;20497;-72
2024/01/11 09:42:27;;;;;;;26.67;16.37;;;14.10;38.50;;;;;;5054633;28;20166;-69
2024/01/11 09:44:55;;;;;;;26.90;19.00;;;14.30;39.30;;;;;;5054028;28;20426;-69
2024/01/11 09:47:21;;;;;;;29.10;19.40;;;15.20;40.10;;;;;;5054591;28;20494;-69
2024/01/11 09:49:50;;;;;;;30.57;20.17;;;16.40;39.80;;;;;;5054460;28;20408;-67
2024/01/11 09:52:19;;;;;;;31.93;19.13;;;17.30;38.20;;;;;;5054356;28;20425;-67
2024/01/11 09:54:45;;;;;;;31.30;19.80;;;18.10;36.20;;;;;;5054140;28;20409;-67
2024/01/11 09:57:11;;;;;;;26.33;19.47;;;18.50;34.40;;;;;;5054559;28;20441;-67
2024/01/11 09:59:37;;;;;;;27.03;17.60;;;18.60;32.50;;;;;;5054327;28;20504;-67
2024/01/11 10:02:03;;;;;;;27.10;19.07;;;18.60;31.90;;;;;;5054310;28;20232;-66
2024/01/11 10:04:29;;;;;;;27.13;17.80;;;18.70;31.10;;;;;;5054067;28;20233;-67
2024/01/11 10:06:56;;;;;;;29.33;18.30;;;18.60;30.40;;;;;;5054090;28;20801;-67
2024/01/11 10:09:22;;;;;;;25.63;17.10;;;18.70;30.10;;;;;;5054151;28;20574;-66
2024/01/11 10:11:49;;;;;;;27.20;19.23;;;18.80;29.90;;;;;;5054030;28;20920;-67
2024/01/11 10:14:14;;;;;;;28.27;18.80;;;18.50;29.50;;;;;;5053491;28;20429;-67
2024/01/11 10:16:42;;;;;;;26.80;17.60;;;18.60;29.70;;;;;;5053941;28;20401;-67
2024/01/11 10:19:09;;;;;;;25.53;18.73;;;19.00;30.00;;;;;;5053444;28;20193;-67
2024/01/11 10:21:39;;;;;;;33.10;20.20;;;19.90;30.00;;;;;;5053793;28;20460;-67
2024/01/11 10:24:04;;;;;;;24.50;19.47;;;20.80;29.60;;;;;;5053529;28;20537;-67
2024/01/11 10:26:30;;;;;;;28.10;20.37;;;21.60;29.00;;;;;;5053681;28;20624;-67
2024/01/11 10:28:59;;;;;;;31.67;21.33;;;22.20;28.30;;;;;;5053616;28;20701;-67
2024/01/11 10:31:28;;;;;;;31.37;22.63;;;22.80;27.60;;;;;;5053777;28;20159;-67
2024/01/11 10:33:54;;;;;;;33.50;22.67;;;22.90;26.60;;;;;;5053282;28;20417;-67
2024/01/11 10:36:19;;;;;;;29.40;22.83;;;22.80;26.60;;;;;;5053623;28;20482;-67
2024/01/11 10:38:47;;;;;;;26.20;19.93;;;23.00;26.60;;;;;;5053549;28;20179;-67
2024/01/11 10:41:17;;;;;;;31.77;21.23;;;23.50;26.50;;;;;;5053297;28;20166;-67
2024/01/11 10:43:43;;;;;;;33.23;20.30;;;24.20;26.40;;;;;;5053273;28;20429;-67
2024/01/11 10:46:12;;;;;;;25.00;20.63;;;24.90;26.20;;;;;;5053291;28;20455;-67
2024/01/11 10:48:39;;;;;;;23.97;19.07;;;25.50;25.50;;;;;;5052453;28;20984;-67
2024/01/11 10:51:08;;;;;;;24.10;19.38;;;25.90;25.00;;;;;;5052962;28;20485;-67
2024/01/11 10:53:45;;;;;;;28.70;19.73;;;26.10;24.80;;;;;;5053084;28;20190;-67
2024/01/11 10:56:15;;;;;;;25.30;19.50;;;26.50;24.30;;;;;;5053280;28;20404;-67
2024/01/11 10:58:42;;;;;;;26.33;21.10;;;27.00;23.90;;;;;;5053303;28;20484;-67
2024/01/11 11:01:10;;;;;;;23.17;20.17;;;27.60;23.70;;;;;;5052720;28;20405;-67
2024/01/11 11:03:37;;;;;;;30.03;21.17;;;27.90;23.20;;;;;;5052876;28;20425;-67
2024/01/11 11:06:06;;;;;;;22.53;20.07;;;28.10;22.60;;;;;;5053034;28;20441;-67
2024/01/11 11:08:33;;;;;;;26.07;21.77;;;28.10;22.10;;;;;;5053034;28;20432;-67
2024/01/11 11:11:03;;;;;;;26.73;22.03;;;27.90;21.70;;;;;;5052950;28;20480;-67
2024/01/11 11:13:28;;;;;;;29.07;22.27;;;27.40;21.40;;;;;;5052765;28;20432;-67
2024/01/11 11:15:57;;;;;;;23.77;20.50;;;27.20;21.40;;;;;;5052917;28;20401;-67
2024/01/11 11:18:23;;;;;;;26.30;21.10;;;27.10;21.70;;;;;;5052849;28;20638;-66
2024/01/11 11:20:50;;;;;;;26.87;20.57;;;27.00;21.90;;;;;;5052850;28;20436;-67
2024/01/11 11:23:17;;;;;;;26.73;21.73;;;27.00;21.70;;;;;;5052688;28;20859;-67
2024/01/11 11:25:45;;;;;;;21.80;19.07;;;27.10;21.80;;;;;;5052515;28;20502;-67
2024/01/11 11:28:13;;;;;;;23.33;20.33;;;27.20;21.80;;;;;;5052717;28;20416;-67
2024/01/11 11:30:41;;;;;;;22.20;19.33;;;27.60;22.00;;;;;;5052746;28;20493;-67
2024/01/11 11:33:09;;;;;;;20.87;18.50;;;28.10;21.60;;;;;;5052718;28;20416;-67
2024/01/11 11:35:36;;;;;;;23.40;19.53;;;28.60;21.40;;;;;;5052438;28;20771;-67
2024/01/11 11:38:02;;;;;;;26.00;21.10;;;29.00;21.20;;;;;;5052591;28;20829;-66
2024/01/11 11:40:39;;;;;;;27.10;21.13;;;29.30;21.00;;;;;;5052437;28;20484;-67
2024/01/11 11:43:06;;;;;;;23.73;20.73;;;29.50;20.90;;;;;;5052324;28;20983;-67
2024/01/11 11:45:32;;;;;;;25.50;20.43;;;29.70;20.60;;;;;;5051872;28;20445;-66
2024/01/11 11:47:57;;;;;;;27.10;20.90;;;29.70;20.30;;;;;;5052271;28;20394;-66
2024/01/11 11:50:25;;;;;;;23.00;20.50;;;29.60;20.30;;;;;;5052228;28;20405;-66
2024/01/11 11:52:58;;;;;;;27.93;22.30;;;29.70;20.40;;;;;;5052177;28;20185;-67
2024/01/11 11:55:28;;;;;;;32.00;23.30;;;29.70;20.50;;;;;;5052131;28;20930;-67
2024/01/11 11:57:53;;;;;;;28.40;22.50;;;30.00;20.50;;;;;;5052196;28;20415;-67
2024/01/11 12:00:23;;;;;;;21.87;18.60;;;30.30;20.50;;;;;;5052195;28;20407;-67
2024/01/11 12:02:51;;;;;;;23.73;21.07;;;30.70;20.30;;;;;;5052215;28;20177;-67
2024/01/11 12:05:18;;;;;;;24.50;21.90;;;30.80;20.10;;;;;;5051761;28;20492;-67
2024/01/11 12:07:44;;;;;;;23.40;20.87;;;30.90;19.30;;;;;;5052028;28;20402;-67
2024/01/11 12:10:10;;;;;;;22.23;19.50;;;30.90;19.10;;;;;;5052079;28;20429;-68
2024/01/11 12:12:37;;;;;;;22.47;19.30;;;30.80;18.90;;;;;;5050945;28;20444;-67
2024/01/11 12:15:04;;;;;;;26.30;20.43;;;30.40;19.00;;;;;;5051673;28;20256;-67
2024/01/11 12:17:30;;;;;;;26.43;20.13;;;30.20;19.20;;;;;;5051951;28;20433;-68
2024/01/11 12:19:55;;;;;;;25.33;21.87;;;29.90;19.20;;;;;;5051830;28;20421;-68
2024/01/11 12:22:21;;;;;;;23.67;19.70;;;29.70;19.30;;;;;;5051816;28;20665;-68